^^
Grace C. Lehan Memorial Weather Station Historical Data
Daily Summary for June 24, 2021 Units:  Metric    English   Both
Daily Weekly Monthly Yearly
  High: Low: Average:
Temperature: 7.4 °C -3.3 °C 0.9 °C
Dew Point: -6.3 °C -11 °C -8.2 °C
Humidity: 66.8% 26.1% 53%
Wind Speed: 14.6km/h 0km/h 4.7km/h
Wind Gust: 30.6km/h - -
Wind- - NW
Pressure: 1025.6 hPa 1019.2 hPa -
Precipitation: 0 mm    
 
 
Tabular Data for June 24, 2021
Time Temperature Dew Point Pressure Wind Wind Speed Wind Gust Humidity Rainfall Rate (Hourly) solar
00:04 -1.3 °C -7 °C 1019.2 hPa NW 5.8 km/h 20.9 km/h 65% 0 mm 0 W/m2
00:09 -1.3 °C -7 °C 1019.2 hPa NW 7.9 km/h 19.3 km/h 65% 0 mm 0 W/m2
00:14 -1.3 °C -7.1 °C 1019.2 hPa NW 6.6 km/h 19.3 km/h 64.7% 0 mm 0 W/m2
00:19 -1.3 °C -7.2 °C 1019.2 hPa WNW 3.4 km/h 19.3 km/h 64.2% 0 mm 0 W/m2
00:24 -1.3 °C -7.2 °C 1019.2 hPa NW 4.5 km/h 19.3 km/h 64.2% 0 mm 0 W/m2
00:29 -1.3 °C -7.3 °C 1019.2 hPa WNW 7.4 km/h 19.3 km/h 64% 0 mm 0 W/m2
00:34 -1.3 °C -7.3 °C 1019.2 hPa WNW 5.1 km/h 19.3 km/h 64% 0 mm 0 W/m2
00:39 -1.3 °C -7.3 °C 1019.2 hPa NW 7.1 km/h 16.1 km/h 64% 0 mm 0 W/m2
00:44 -1.3 °C -7.3 °C 1019.2 hPa NW 8.7 km/h 20.9 km/h 64% 0 mm 0 W/m2
00:49 -1.3 °C -7.3 °C 1019.2 hPa NNW 6.6 km/h 20.9 km/h 63.5% 0 mm 0 W/m2
00:54 -1.3 °C -7.3 °C 1019.5 hPa West 2.3 km/h 20.9 km/h 63.6% 0 mm 0 W/m2
00:59 -1.4 °C -7.4 °C 1019.5 hPa NW 5 km/h 20.9 km/h 63.6% 0 mm 0 W/m2
01:04 -1.4 °C -7.3 °C 1019.5 hPa NW 1.6 km/h 20.9 km/h 63.9% 0 mm 0 W/m2
01:09 -1.4 °C -7.4 °C 1019.5 hPa NNW 2.4 km/h 6.4 km/h 64% 0 mm 0 W/m2
01:14 -1.5 °C -7.4 °C 1019.5 hPa NNW 2.9 km/h 11.3 km/h 64.1% 0 mm 0 W/m2
01:19 -1.6 °C -7.4 °C 1019.5 hPa NW 7.4 km/h 17.7 km/h 64.5% 0 mm 0 W/m2
01:24 -1.6 °C -7.5 °C 1019.9 hPa NW 5.6 km/h 17.7 km/h 64% 0 mm 0 W/m2
01:29 -1.6 °C -7.5 °C 1019.9 hPa NW 2.9 km/h 17.7 km/h 64% 0 mm 0 W/m2
01:34 -1.6 °C -7.5 °C 1019.9 hPa NW 3.2 km/h 17.7 km/h 64% 0 mm 0 W/m2
01:39 -1.6 °C -7.6 °C 1019.9 hPa NW 1.9 km/h 14.5 km/h 64% 0 mm 0 W/m2
01:44 -1.7 °C -7.6 °C 1020.2 hPa NW 4.2 km/h 14.5 km/h 64% 0 mm 0 W/m2
01:49 -1.7 °C -7.6 °C 1020.2 hPa NW 1.3 km/h 14.5 km/h 64% 0 mm 0 W/m2
01:54 -1.8 °C -7.7 °C 1020.2 hPa NW 2.7 km/h 14.5 km/h 64% 0 mm 0 W/m2
01:59 -1.8 °C -7.7 °C 1020.2 hPa NW 6.4 km/h 16.1 km/h 64% 0 mm 0 W/m2
02:04 -1.8 °C -7.7 °C 1020.2 hPa NW 0.6 km/h 16.1 km/h 64% 0 mm 0 W/m2
02:09 -1.8 °C -7.7 °C 1020.2 hPa NW 1.6 km/h 6.4 km/h 64% 0 mm 0 W/m2
02:14 -1.9 °C -7.8 °C 1020.5 hPa NW 3.1 km/h 12.9 km/h 64% 0 mm 0 W/m2
02:19 -1.9 °C -7.8 °C 1020.5 hPa NNW 3.7 km/h 14.5 km/h 64% 0 mm 0 W/m2
02:24 -1.9 °C -7.8 °C 1020.5 hPa NW 2.1 km/h 14.5 km/h 64% 0 mm 0 W/m2
02:29 -2 °C -7.9 °C 1020.5 hPa NW 2.3 km/h 14.5 km/h 64% 0 mm 0 W/m2
02:34 -2.1 °C -7.9 °C 1020.5 hPa NW 4.7 km/h 14.5 km/h 64% 0 mm 0 W/m2
02:39 -2.1 °C -8 °C 1020.9 hPa WNW 1.9 km/h 14.5 km/h 63.7% 0 mm 0 W/m2
02:44 -2.1 °C -8.1 °C 1020.9 hPa NW 6.9 km/h 17.7 km/h 63.4% 0 mm 0 W/m2
02:49 -2.1 °C -8.2 °C 1020.9 hPa NW 4.3 km/h 17.7 km/h 63% 0 mm 0 W/m2
02:54 -2.1 °C -8.2 °C 1020.9 hPa WNW 5.8 km/h 17.7 km/h 63% 0 mm 0 W/m2
02:59 -2.1 °C -8.3 °C 1020.9 hPa WNW 3.9 km/h 17.7 km/h 62.4% 0 mm 0 W/m2
03:04 -2.1 °C -8.4 °C 1020.9 hPa WNW 8.9 km/h 22.5 km/h 62.2% 0 mm 0 W/m2
03:09 -2.1 °C -8.4 °C 1020.9 hPa NW 8.4 km/h 22.5 km/h 62% 0 mm 0 W/m2
03:14 -2.1 °C -8.6 °C 1020.9 hPa WNW 5.1 km/h 22.5 km/h 61.1% 0 mm 0 W/m2
03:19 -2.1 °C -8.6 °C 1021.2 hPa NW 3.2 km/h 22.5 km/h 61% 0 mm 0 W/m2
03:24 -2.1 °C -8.4 °C 1020.9 hPa NW 4.7 km/h 22.5 km/h 61.7% 0 mm 0 W/m2
03:29 -2.1 °C -8.6 °C 1021.2 hPa NW 6.6 km/h 22.5 km/h 61.4% 0 mm 0 W/m2
03:34 -2.1 °C -8.6 °C 1021.2 hPa NNW 2.4 km/h 22.5 km/h 61% 0 mm 0 W/m2
03:39 -2.2 °C -8.7 °C 1021.2 hPa NNW 3.1 km/h 9.7 km/h 61% 0 mm 0 W/m2
03:44 -2.2 °C -8.7 °C 1021.2 hPa NNW 3.5 km/h 14.5 km/h 61% 0 mm 0 W/m2
03:49 -2.2 °C -8.7 °C 1021.6 hPa NW 6.9 km/h 17.7 km/h 61% 0 mm 0 W/m2
03:54 -2.2 °C -8.7 °C 1021.6 hPa WNW 5.8 km/h 17.7 km/h 61% 0 mm 0 W/m2
03:59 -2.2 °C -8.7 °C 1021.6 hPa WNW 3.2 km/h 17.7 km/h 61% 0 mm 0 W/m2
04:00 -2.2 °C -8.7 °C 1021.6 hPa NW 1.6 km/h 17.7 km/h 61% 0 mm 0 W/m2
04:09 -2.2 °C -8.7 °C 1021.6 hPa NW 1.6 km/h 8 km/h 61% 0 mm 0 W/m2
04:14 -2.3 °C -8.8 °C 1021.9 hPa NW 1.1 km/h 8 km/h 61% 0 mm 0 W/m2
04:19 -2.3 °C -8.7 °C 1021.9 hPa NW 0.6 km/h 8 km/h 61.4% 0 mm 0 W/m2
04:24 -2.4 °C -8.7 °C 1021.9 hPa NW 0.8 km/h 8 km/h 62% 0 mm 0 W/m2
04:29 -2.4 °C -8.7 °C 1021.9 hPa NW 1 km/h 8 km/h 62% 0 mm 0 W/m2
04:34 -2.5 °C -8.8 °C 1021.9 hPa NW 2.6 km/h 11.3 km/h 62% 0 mm 0 W/m2
04:39 -2.6 °C -8.7 °C 1021.9 hPa NW 0.6 km/h 11.3 km/h 62.6% 0 mm 0 W/m2
04:44 -2.6 °C -8.7 °C 1021.9 hPa NW 0.2 km/h 11.3 km/h 63% 0 mm 0 W/m2
04:49 -2.7 °C -8.7 °C 1022.2 hPa NW 0.3 km/h 11.3 km/h 63% 0 mm 0 W/m2
04:54 -2.7 °C -8.8 °C 1022.2 hPa Calm   11.3 km/h 63.3% 0 mm 0 W/m2
04:59 -2.8 °C -8.8 °C 1022.6 hPa Calm   11.3 km/h 63.2% 0 mm 0 W/m2
05:04 -2.9 °C -8.7 °C 1022.6 hPa NW 0.2 km/h 11.3 km/h 64% 0 mm 0 W/m2
05:09 -2.9 °C -8.7 °C 1022.9 hPa Calm   1.6 km/h 64.3% 0 mm 0 W/m2
05:14 -3 °C -8.5 °C 1022.9 hPa Calm   1.6 km/h 65.8% 0 mm 0 W/m2
05:19 -3.1 °C -8.6 °C 1022.9 hPa Calm   1.6 km/h 66% 0 mm 0 W/m2
05:24 -3.2 °C -8.6 °C 1023.2 hPa NW 0.6 km/h 3.2 km/h 66% 0 mm 0 W/m2
05:29 -3.2 °C -8.7 °C 1023.2 hPa NW 0.2 km/h 3.2 km/h 66% 0 mm 0 W/m2
05:34 -3.3 °C -8.7 °C 1023.6 hPa NW 2.1 km/h 6.4 km/h 66% 0 mm 0 W/m2
05:39 -3.3 °C -8.6 °C 1023.6 hPa NW 3.5 km/h 9.7 km/h 66.5% 0 mm 0 W/m2
05:44 -3.2 °C -8.5 °C 1023.6 hPa WNW 5.8 km/h 17.7 km/h 66.8% 0 mm 0 W/m2
05:49 -3.1 °C -8.5 °C 1023.6 hPa WNW 5 km/h 17.7 km/h 65.9% 0 mm 0 W/m2
05:54 -2.9 °C -8.6 °C 1023.6 hPa NW 3.5 km/h 17.7 km/h 65% 0 mm 0 W/m2
05:59 -2.8 °C -8.4 °C 1023.9 hPa NW 1.1 km/h 17.7 km/h 65% 0 mm 0 W/m2
06:04 -2.8 °C -8.4 °C 1023.9 hPa NW 1.8 km/h 17.7 km/h 65% 0 mm 0 W/m2
06:09 -2.7 °C -8.4 °C 1023.9 hPa NW 4.5 km/h 17.7 km/h 65% 0 mm 0 W/m2
06:14 -2.6 °C -8.3 °C 1023.9 hPa NW 1.6 km/h 17.7 km/h 65% 0 mm 0 W/m2
06:19 -2.6 °C -8.4 °C 1024.3 hPa NW 1.1 km/h 17.7 km/h 64.5% 0 mm 0 W/m2
06:24 -2.6 °C -8.3 °C 1024.3 hPa NW 1.8 km/h 17.7 km/h 65% 0 mm 0 W/m2
06:29 -2.6 °C -8.3 °C 1024.3 hPa NW 3.5 km/h 17.7 km/h 65% 0 mm 0 W/m2
06:34 -2.6 °C -8.3 °C 1024.3 hPa NNW 2.6 km/h 17.7 km/h 65% 0 mm 0 W/m2
06:39 -2.6 °C -8.2 °C 1024.3 hPa NW 4.5 km/h 11.3 km/h 65% 0 mm 0 W/m2
06:44 -2.6 °C -8.2 °C 1024.3 hPa NW 4.3 km/h 11.3 km/h 65% 0 mm 0 W/m2
06:49 -2.5 °C -8.3 °C 1024.6 hPa NW 1.6 km/h 11.3 km/h 64.3% 0 mm 0 W/m2
06:54 -2.5 °C -8.4 °C 1024.6 hPa NNW 2.4 km/h 14.5 km/h 64% 0 mm 5 W/m2
06:59 -2.4 °C -8.3 °C 1024.6 hPa North 3.1 km/h 14.5 km/h 64% 0 mm 11 W/m2
07:04 -2.4 °C -8.3 °C 1024.6 hPa North 1.8 km/h 14.5 km/h 64% 0 mm 12 W/m2
07:09 -2.3 °C -8.2 °C 1024.6 hPa Calm   4.8 km/h 64% 0 mm 14 W/m2
07:14 -2.3 °C -8.2 °C 1024.6 hPa North 0.3 km/h 4.8 km/h 64% 0 mm 16 W/m2
07:19 -2.3 °C -8.2 °C 1024.9 hPa North 0.3 km/h 4.8 km/h 64% 0 mm 19 W/m2
07:24 -2.3 °C -8.2 °C 1024.9 hPa North 1.1 km/h 6.4 km/h 64% 0 mm 33 W/m2
07:29 -2.2 °C -8.1 °C 1024.9 hPa North 0.3 km/h 6.4 km/h 64% 0 mm 42 W/m2
07:34 -2.1 °C -7.9 °C 1024.9 hPa North 1.3 km/h 6.4 km/h 64.4% 0 mm 47 W/m2
07:39 -1.8 °C -7.8 °C 1024.9 hPa NNW 1.9 km/h 11.3 km/h 63.9% 0 mm 105 W/m2
07:44 -1.6 °C -7.7 °C 1024.9 hPa NW 2.4 km/h 11.3 km/h 62.9% 0 mm 100 W/m2
07:49 -1.2 °C -7.6 °C 1024.9 hPa NW 0.5 km/h 11.3 km/h 61.8% 0 mm 46 W/m2
07:54 -0.8 °C -7.3 °C 1024.9 hPa NNW 1.9 km/h 11.3 km/h 61.2% 0 mm 56 W/m2
07:59 -0.6 °C -7.4 °C 1025.3 hPa NNW 1.3 km/h 11.3 km/h 59.8% 0 mm 146 W/m2
08:00 -0.4 °C -7.4 °C 1024.9 hPa Calm   11.3 km/h 59% 0 mm 146 W/m2
08:09 0 °C -7.2 °C 1025.3 hPa NNW 3.9 km/h 9.7 km/h 58.5% 0 mm 199 W/m2
08:14 0.3 °C -7.1 °C 1025.3 hPa NNW 5.3 km/h 14.5 km/h 57.3% 0 mm 232 W/m2
08:19 0.7 °C -7 °C 1025.3 hPa NNW 5.5 km/h 16.1 km/h 56.2% 0 mm 244 W/m2
08:24 1 °C -7 °C 1025.3 hPa NW 5.3 km/h 19.3 km/h 55.1% 0 mm 248 W/m2
08:29 1.3 °C -7 °C 1025.3 hPa NW 4.5 km/h 19.3 km/h 54% 0 mm 265 W/m2
08:34 1.6 °C -6.8 °C 1025.3 hPa NW 3.5 km/h 19.3 km/h 54% 0 mm 269 W/m2
08:39 1.8 °C -6.8 °C 1025.3 hPa NW 3.1 km/h 14.5 km/h 52.8% 0 mm 276 W/m2
08:44 2 °C -6.9 °C 1025.3 hPa NW 4.5 km/h 14.5 km/h 51.7% 0 mm 288 W/m2
08:49 2.1 °C -7.1 °C 1025.3 hPa NW 6.8 km/h 14.5 km/h 51% 0 mm 278 W/m2
08:54 1.9 °C -7.1 °C 1025.3 hPa NW 7.4 km/h 17.7 km/h 51% 0 mm 214 W/m2
08:59 1.8 °C -7.2 °C 1025.3 hPa NNW 2.1 km/h 17.7 km/h 51.4% 0 mm 141 W/m2
09:04 1.8 °C -7.1 °C 1025.6 hPa NW 3.1 km/h 17.7 km/h 52% 0 mm 211 W/m2
09:09 1.7 °C -7.1 °C 1025.6 hPa NW 3.2 km/h 11.3 km/h 52% 0 mm 211 W/m2
09:14 1.6 °C -7.2 °C 1025.6 hPa WNW 4.8 km/h 14.5 km/h 51.9% 0 mm 167 W/m2
09:19 1.6 °C -7.2 °C 1025.3 hPa NW 3.1 km/h 14.5 km/h 52% 0 mm 181 W/m2
09:24 1.7 °C -7.2 °C 1025.3 hPa NW 1.9 km/h 14.5 km/h 52% 0 mm 214 W/m2
09:29 1.8 °C -7.1 °C 1025.6 hPa NW 3.4 km/h 14.5 km/h 51.7% 0 mm 139 W/m2
09:34 1.8 °C -7.2 °C 1025.3 hPa WNW 5.1 km/h 17.7 km/h 51% 0 mm 142 W/m2
09:39 1.8 °C -7.3 °C 1025.6 hPa NW 4.8 km/h 17.7 km/h 50.7% 0 mm 139 W/m2
09:44 1.8 °C -7.3 °C 1025.3 hPa WNW 4 km/h 17.7 km/h 51% 0 mm 156 W/m2
09:49 1.8 °C -7.2 °C 1025.6 hPa WNW 3.7 km/h 17.7 km/h 51% 0 mm 135 W/m2
09:54 1.9 °C -7.2 °C 1025.6 hPa WNW 6 km/h 17.7 km/h 51% 0 mm 218 W/m2
09:59 2.1 °C -7.2 °C 1025.6 hPa WNW 6.8 km/h 17.7 km/h 50.3% 0 mm 339 W/m2
10:04 2.3 °C -7.2 °C 1025.6 hPa WNW 5.6 km/h 17.7 km/h 49.5% 0 mm 364 W/m2
10:09 2.8 °C -6.9 °C 1025.6 hPa WNW 4.2 km/h 14.5 km/h 49% 0 mm 362 W/m2
10:14 3.2 °C -6.6 °C 1025.6 hPa NW 3.5 km/h 14.5 km/h 48.5% 0 mm 469 W/m2
10:19 3.8 °C -6.3 °C 1025.3 hPa WNW 2.9 km/h 14.5 km/h 47.3% 0 mm 478 W/m2
10:24 4.3 °C -6.5 °C 1025.3 hPa WNW 6.6 km/h 17.7 km/h 45.1% 0 mm 483 W/m2
10:29 4.6 °C -7 °C 1025.3 hPa WNW 7.2 km/h 17.7 km/h 42.7% 0 mm 490 W/m2
10:34 4.7 °C -6.9 °C 1025.3 hPa NW 6.3 km/h 19.3 km/h 42.7% 0 mm 473 W/m2
10:39 4.7 °C -7.1 °C 1025.3 hPa WNW 10.5 km/h 22.5 km/h 42.2% 0 mm 480 W/m2
10:44 4.6 °C -7.5 °C 1024.9 hPa WNW 12.9 km/h 24.1 km/h 41% 0 mm 244 W/m2
10:49 4.4 °C -7.7 °C 1024.9 hPa NW 12.1 km/h 27.4 km/h 41% 0 mm 207 W/m2
10:54 4.4 °C -7.6 °C 1024.9 hPa NW 7.1 km/h 27.4 km/h 41.5% 0 mm 362 W/m2
10:59 4.4 °C -7.7 °C 1024.9 hPa WNW 9.3 km/h 27.4 km/h 41% 0 mm 404 W/m2
11:04 4.6 °C -7.6 °C 1024.9 hPa NW 8.5 km/h 27.4 km/h 41.1% 0 mm 353 W/m2
11:09 4.7 °C -7.6 °C 1024.6 hPa NW 4.8 km/h 22.5 km/h 40.6% 0 mm 179 W/m2
11:14 4.8 °C -7.4 °C 1024.6 hPa WNW 4.8 km/h 22.5 km/h 40.9% 0 mm 360 W/m2
11:19 4.9 °C -7.6 °C 1024.6 hPa WNW 5.5 km/h 27.4 km/h 39.7% 0 mm 413 W/m2
11:24 5.1 °C -7.7 °C 1024.6 hPa WNW 8.5 km/h 27.4 km/h 39% 0 mm 313 W/m2
11:29 5.2 °C -7.8 °C 1024.6 hPa NW 11.9 km/h 27.4 km/h 38.5% 0 mm 127 W/m2
11:34 5.3 °C -8 °C 1024.6 hPa NW 5.3 km/h 27.4 km/h 37.7% 0 mm 128 W/m2
11:39 5.4 °C -8 °C 1024.6 hPa NW 6.3 km/h 20.9 km/h 37.3% 0 mm 118 W/m2
11:44 5.6 °C -7.9 °C 1024.3 hPa NW 3.9 km/h 20.9 km/h 37.2% 0 mm 446 W/m2
11:49 5.8 °C -7.7 °C 1024.3 hPa WNW 7.1 km/h 24.1 km/h 37.2% 0 mm 425 W/m2
11:54 5.9 °C -8.6 °C 1024.3 hPa WNW 14.2 km/h 27.4 km/h 34.5% 0 mm 130 W/m2
11:59 5.9 °C -8.4 °C 1024.3 hPa NW 9.2 km/h 27.4 km/h 35% 0 mm 411 W/m2
12:00 5.9 °C -8.8 °C 1024.3 hPa NNW 8 km/h 27.4 km/h 34% 0 mm 373 W/m2
12:09 6.1 °C -8.8 °C 1024.3 hPa NW 8.2 km/h 20.9 km/h 33.6% 0 mm 269 W/m2
12:14 6.2 °C -9 °C 1023.9 hPa NNW 7.1 km/h 22.5 km/h 32.6% 0 mm 269 W/m2
12:19 6.3 °C -8.4 °C 1023.9 hPa WNW 6.9 km/h 22.5 km/h 33.9% 0 mm 65 W/m2
12:24 6.4 °C -9.1 °C 1023.9 hPa WNW 12.7 km/h 24.1 km/h 31.8% 0 mm 132 W/m2
12:29 6.4 °C -9.7 °C 1023.9 hPa NW 14.6 km/h 30.6 km/h 30.6% 0 mm 132 W/m2
12:34 6.3 °C -9.9 °C 1023.6 hPa NW 10.8 km/h 30.6 km/h 30.2% 0 mm 127 W/m2
12:39 6.4 °C -9.7 °C 1023.6 hPa NW 8 km/h 29 km/h 30.6% 0 mm 86 W/m2
12:44 6.5 °C -9.4 °C 1023.6 hPa NW 8.7 km/h 29 km/h 31% 0 mm 86 W/m2
12:49 6.5 °C -9.4 °C 1023.6 hPa NNW 6.9 km/h 29 km/h 31% 0 mm 236 W/m2
12:54 6.4 °C -9.6 °C 1023.6 hPa NW 9.2 km/h 29 km/h 30.8% 0 mm 329 W/m2
12:59 6.4 °C -9.9 °C 1023.6 hPa WNW 6.4 km/h 29 km/h 30% 0 mm 288 W/m2
13:03 6.4 °C -9.7 °C 1023.6 hPa NW 3.9 km/h 29 km/h 30.4% 0 mm 227 W/m2
13:09 6.5 °C -9.5 °C 1023.6 hPa NNW 2.9 km/h 14.5 km/h 30.8% 0 mm 332 W/m2
13:14 6.6 °C -9.3 °C 1023.6 hPa NW 6.9 km/h 17.7 km/h 31% 0 mm 302 W/m2
13:19 6.7 °C -9.9 °C 1023.6 hPa NW 10.6 km/h 24.1 km/h 29.4% 0 mm 88 W/m2
13:24 6.7 °C -10 °C 1023.6 hPa NW 6.6 km/h 24.1 km/h 29.2% 0 mm 39 W/m2
13:29 6.7 °C -10.1 °C 1023.2 hPa NNW 4.5 km/h 24.1 km/h 29.1% 0 mm 111 W/m2
13:34 6.7 °C -10.2 °C 1023.2 hPa NNW 9.3 km/h 24.1 km/h 28.7% 0 mm 197 W/m2
13:39 6.8 °C -10.2 °C 1023.2 hPa NNW 5.5 km/h 20.9 km/h 28.5% 0 mm 162 W/m2
13:44 7 °C -10.1 °C 1022.9 hPa NNW 5 km/h 20.9 km/h 28.4% 0 mm 199 W/m2
13:49 7.2 °C -10.1 °C 1022.9 hPa NW 8.7 km/h 20.9 km/h 28.2% 0 mm 373 W/m2
13:54 7.3 °C -10 °C 1022.9 hPa NW 5.1 km/h 22.5 km/h 28% 0 mm 376 W/m2
13:59 7.4 °C -9.9 °C 1022.9 hPa WNW 8 km/h 22.5 km/h 28% 0 mm 188 W/m2
14:04 7.3 °C -9.9 °C 1023.2 hPa WNW 4.7 km/h 22.5 km/h 28% 0 mm 188 W/m2
14:09 7.4 °C -9.9 °C 1023.2 hPa NW 4 km/h 16.1 km/h 28% 0 mm 183 W/m2
14:14 7.4 °C -10.2 °C 1023.2 hPa NW 5.6 km/h 16.1 km/h 27.3% 0 mm 77 W/m2
14:19 7.3 °C -10.8 °C 1023.2 hPa NW 10.9 km/h 27.4 km/h 26.2% 0 mm 58 W/m2
14:24 7.2 °C -11 °C 1023.2 hPa NW 9.5 km/h 27.4 km/h 26.1% 0 mm 63 W/m2
14:29 7.1 °C -10.8 °C 1023.2 hPa NW 7.4 km/h 27.4 km/h 26.7% 0 mm 128 W/m2
14:34 7 °C -10.7 °C 1023.2 hPa NW 8.5 km/h 27.4 km/h 27% 0 mm 26 W/m2
14:39 6.9 °C -10.8 °C 1023.2 hPa NW 6.1 km/h 24.1 km/h 27% 0 mm 26 W/m2
14:44 6.9 °C -10.4 °C 1023.2 hPa NW 6.8 km/h 24.1 km/h 27.9% 0 mm 25 W/m2
14:48 6.9 °C -10.4 °C 1023.2 hPa NW 7.1 km/h 24.1 km/h 27.8% 0 mm 25 W/m2
Hartford County Weather
Compliments of Weather Underground - 2 mb